sensor_id;sensor_type;location;lat;lon;timestamp;P1;durP1;ratioP1;P2;durP2;ratioP2
47545;SDS011;50104;52.002;4.688;2022-09-09T00:01:23;3.67;;;2.90;;
47545;SDS011;50104;52.002;4.688;2022-09-09T00:12:46;5.50;;;2.85;;
47545;SDS011;50104;52.002;4.688;2022-09-09T00:17:37;5.68;;;3.40;;
47545;SDS011;50104;52.002;4.688;2022-09-09T00:23:00;5.45;;;3.55;;
47545;SDS011;50104;52.002;4.688;2022-09-09T00:28:19;6.18;;;3.92;;
47545;SDS011;50104;52.002;4.688;2022-09-09T00:33:24;3.83;;;3.30;;
47545;SDS011;50104;52.002;4.688;2022-09-09T00:38:28;4.10;;;3.50;;
47545;SDS011;50104;52.002;4.688;2022-09-09T00:43:55;4.70;;;3.40;;
47545;SDS011;50104;52.002;4.688;2022-09-09T01:00:47;4.25;;;3.63;;
47545;SDS011;50104;52.002;4.688;2022-09-09T01:10:57;7.35;;;4.25;;
47545;SDS011;50104;52.002;4.688;2022-09-09T01:16:00;7.82;;;4.05;;
47545;SDS011;50104;52.002;4.688;2022-09-09T01:21:16;5.00;;;4.10;;
47545;SDS011;50104;52.002;4.688;2022-09-09T01:37:06;6.57;;;3.50;;
47545;SDS011;50104;52.002;4.688;2022-09-09T01:42:12;6.32;;;3.97;;
47545;SDS011;50104;52.002;4.688;2022-09-09T01:47:16;4.60;;;3.70;;
47545;SDS011;50104;52.002;4.688;2022-09-09T01:52:17;5.60;;;4.03;;
47545;SDS011;50104;52.002;4.688;2022-09-09T01:57:21;5.97;;;3.63;;
47545;SDS011;50104;52.002;4.688;2022-09-09T02:02:32;4.18;;;3.78;;
47545;SDS011;50104;52.002;4.688;2022-09-09T02:07:41;10.50;;;3.95;;
47545;SDS011;50104;52.002;4.688;2022-09-09T02:12:51;3.97;;;3.40;;
47545;SDS011;50104;52.002;4.688;2022-09-09T02:18:08;4.78;;;3.72;;
47545;SDS011;50104;52.002;4.688;2022-09-09T02:23:13;6.80;;;3.95;;
47545;SDS011;50104;52.002;4.688;2022-09-09T02:28:16;8.70;;;4.10;;
47545;SDS011;50104;52.002;4.688;2022-09-09T02:33:18;7.00;;;4.70;;
47545;SDS011;50104;52.002;4.688;2022-09-09T02:38:20;7.15;;;4.22;;
47545;SDS011;50104;52.002;4.688;2022-09-09T02:43:30;4.80;;;4.13;;
47545;SDS011;50104;52.002;4.688;2022-09-09T02:48:47;8.27;;;4.40;;
47545;SDS011;50104;52.002;4.688;2022-09-09T02:53:59;6.15;;;4.40;;
47545;SDS011;50104;52.002;4.688;2022-09-09T02:59:31;6.95;;;5.07;;
47545;SDS011;50104;52.002;4.688;2022-09-09T03:04:32;7.18;;;4.35;;
47545;SDS011;50104;52.002;4.688;2022-09-09T03:09:33;8.07;;;4.85;;
47545;SDS011;50104;52.002;4.688;2022-09-09T03:14:33;5.35;;;4.47;;
47545;SDS011;50104;52.002;4.688;2022-09-09T03:19:35;8.68;;;4.85;;
47545;SDS011;50104;52.002;4.688;2022-09-09T03:24:36;9.43;;;4.90;;
47545;SDS011;50104;52.002;4.688;2022-09-09T03:29:37;6.65;;;4.47;;
47545;SDS011;50104;52.002;4.688;2022-09-09T03:34:38;6.50;;;4.63;;
47545;SDS011;50104;52.002;4.688;2022-09-09T03:39:42;5.43;;;3.95;;
47545;SDS011;50104;52.002;4.688;2022-09-09T03:44:43;6.45;;;4.10;;
47545;SDS011;50104;52.002;4.688;2022-09-09T03:49:46;4.15;;;3.75;;
47545;SDS011;50104;52.002;4.688;2022-09-09T03:54:48;6.50;;;3.80;;
47545;SDS011;50104;52.002;4.688;2022-09-09T03:59:49;4.03;;;3.40;;
47545;SDS011;50104;52.002;4.688;2022-09-09T04:04:49;7.25;;;2.97;;
47545;SDS011;50104;52.002;4.688;2022-09-09T04:09:50;6.28;;;2.95;;
47545;SDS011;50104;52.002;4.688;2022-09-09T04:14:51;6.80;;;3.85;;
47545;SDS011;50104;52.002;4.688;2022-09-09T04:19:52;5.25;;;2.40;;
47545;SDS011;50104;52.002;4.688;2022-09-09T04:24:52;4.05;;;2.05;;
47545;SDS011;50104;52.002;4.688;2022-09-09T04:29:53;5.25;;;2.67;;
47545;SDS011;50104;52.002;4.688;2022-09-09T04:34:56;3.10;;;2.20;;
47545;SDS011;50104;52.002;4.688;2022-09-09T04:39:57;4.82;;;2.47;;
47545;SDS011;50104;52.002;4.688;2022-09-09T04:45:02;6.93;;;2.55;;
47545;SDS011;50104;52.002;4.688;2022-09-09T04:50:04;3.83;;;1.98;;
47545;SDS011;50104;52.002;4.688;2022-09-09T04:55:05;5.40;;;2.60;;
47545;SDS011;50104;52.002;4.688;2022-09-09T05:00:07;7.05;;;2.47;;
47545;SDS011;50104;52.002;4.688;2022-09-09T05:05:10;4.72;;;2.60;;
47545;SDS011;50104;52.002;4.688;2022-09-09T05:10:11;4.85;;;2.30;;
47545;SDS011;50104;52.002;4.688;2022-09-09T05:15:14;5.10;;;2.08;;
47545;SDS011;50104;52.002;4.688;2022-09-09T05:20:14;6.30;;;2.40;;
47545;SDS011;50104;52.002;4.688;2022-09-09T05:25:15;5.60;;;2.92;;
47545;SDS011;50104;52.002;4.688;2022-09-09T05:30:16;4.10;;;2.50;;
47545;SDS011;50104;52.002;4.688;2022-09-09T05:35:18;9.13;;;2.55;;
47545;SDS011;50104;52.002;4.688;2022-09-09T05:40:20;6.38;;;2.35;;
47545;SDS011;50104;52.002;4.688;2022-09-09T05:45:21;5.78;;;2.53;;
47545;SDS011;50104;52.002;4.688;2022-09-09T05:50:22;3.00;;;2.28;;
47545;SDS011;50104;52.002;4.688;2022-09-09T05:55:23;5.78;;;2.42;;
47545;SDS011;50104;52.002;4.688;2022-09-09T06:00:25;4.85;;;2.63;;
47545;SDS011;50104;52.002;4.688;2022-09-09T06:05:26;9.45;;;3.38;;
47545;SDS011;50104;52.002;4.688;2022-09-09T06:10:27;10.38;;;2.58;;
47545;SDS011;50104;52.002;4.688;2022-09-09T06:15:28;9.00;;;2.28;;
47545;SDS011;50104;52.002;4.688;2022-09-09T06:20:30;6.00;;;2.00;;
47545;SDS011;50104;52.002;4.688;2022-09-09T06:25:32;7.30;;;2.42;;
47545;SDS011;50104;52.002;4.688;2022-09-09T06:30:34;3.63;;;1.90;;
47545;SDS011;50104;52.002;4.688;2022-09-09T06:35:36;4.40;;;2.20;;
47545;SDS011;50104;52.002;4.688;2022-09-09T06:40:37;7.07;;;2.65;;
47545;SDS011;50104;52.002;4.688;2022-09-09T06:45:37;9.02;;;2.80;;
47545;SDS011;50104;52.002;4.688;2022-09-09T06:50:38;5.57;;;3.65;;
47545;SDS011;50104;52.002;4.688;2022-09-09T06:55:39;7.97;;;3.33;;
47545;SDS011;50104;52.002;4.688;2022-09-09T07:00:43;8.93;;;3.40;;
47545;SDS011;50104;52.002;4.688;2022-09-09T07:05:53;10.23;;;3.83;;
47545;SDS011;50104;52.002;4.688;2022-09-09T07:11:07;8.40;;;3.78;;
47545;SDS011;50104;52.002;4.688;2022-09-09T07:16:10;7.80;;;4.25;;
47545;SDS011;50104;52.002;4.688;2022-09-09T07:21:14;7.30;;;3.88;;
47545;SDS011;50104;52.002;4.688;2022-09-09T07:26:16;6.93;;;4.07;;
47545;SDS011;50104;52.002;4.688;2022-09-09T07:31:20;7.53;;;4.03;;
47545;SDS011;50104;52.002;4.688;2022-09-09T07:36:28;8.77;;;4.55;;
47545;SDS011;50104;52.002;4.688;2022-09-09T07:41:38;6.47;;;4.05;;
47545;SDS011;50104;52.002;4.688;2022-09-09T07:46:43;8.70;;;4.07;;
47545;SDS011;50104;52.002;4.688;2022-09-09T07:51:45;6.93;;;3.92;;
47545;SDS011;50104;52.002;4.688;2022-09-09T07:56:48;11.05;;;4.53;;
47545;SDS011;50104;52.002;4.688;2022-09-09T08:01:50;8.25;;;4.53;;
47545;SDS011;50104;52.002;4.688;2022-09-09T08:06:56;7.15;;;3.60;;
47545;SDS011;50104;52.002;4.688;2022-09-09T08:11:59;7.18;;;3.97;;
47545;SDS011;50104;52.002;4.688;2022-09-09T08:17:01;7.60;;;3.95;;
47545;SDS011;50104;52.002;4.688;2022-09-09T08:22:02;8.55;;;3.42;;
47545;SDS011;50104;52.002;4.688;2022-09-09T08:27:03;6.68;;;4.18;;
47545;SDS011;50104;52.002;4.688;2022-09-09T08:32:04;10.38;;;4.07;;
47545;SDS011;50104;52.002;4.688;2022-09-09T08:37:05;6.75;;;3.20;;
47545;SDS011;50104;52.002;4.688;2022-09-09T08:42:49;5.00;;;2.75;;
47545;SDS011;50104;52.002;4.688;2022-09-09T08:47:54;7.03;;;3.10;;
47545;SDS011;50104;52.002;4.688;2022-09-09T08:53:18;5.75;;;2.50;;
47545;SDS011;50104;52.002;4.688;2022-09-09T08:58:28;4.35;;;2.83;;
47545;SDS011;50104;52.002;4.688;2022-09-09T09:14:23;5.63;;;3.08;;
47545;SDS011;50104;52.002;4.688;2022-09-09T09:19:26;11.63;;;3.58;;
47545;SDS011;50104;52.002;4.688;2022-09-09T09:24:33;7.53;;;3.15;;
47545;SDS011;50104;52.002;4.688;2022-09-09T09:29:36;8.75;;;2.92;;
47545;SDS011;50104;52.002;4.688;2022-09-09T09:34:38;9.10;;;3.17;;
47545;SDS011;50104;52.002;4.688;2022-09-09T09:39:39;7.78;;;2.83;;
47545;SDS011;50104;52.002;4.688;2022-09-09T09:44:40;5.45;;;2.72;;
47545;SDS011;50104;52.002;4.688;2022-09-09T09:49:58;6.25;;;2.95;;
47545;SDS011;50104;52.002;4.688;2022-09-09T09:55:01;7.05;;;2.72;;
47545;SDS011;50104;52.002;4.688;2022-09-09T10:00:14;8.82;;;3.03;;
47545;SDS011;50104;52.002;4.688;2022-09-09T10:05:24;7.40;;;2.60;;
47545;SDS011;50104;52.002;4.688;2022-09-09T10:21:56;5.25;;;2.53;;
47545;SDS011;50104;52.002;4.688;2022-09-09T10:38:52;4.43;;;2.20;;
47545;SDS011;50104;52.002;4.688;2022-09-09T10:59:47;2.92;;;1.75;;
47545;SDS011;50104;52.002;4.688;2022-09-09T11:04:56;3.83;;;2.08;;
47545;SDS011;50104;52.002;4.688;2022-09-09T11:15:42;5.05;;;1.98;;
47545;SDS011;50104;52.002;4.688;2022-09-09T11:20:52;4.85;;;2.40;;
47545;SDS011;50104;52.002;4.688;2022-09-09T11:26:00;4.57;;;2.38;;
47545;SDS011;50104;52.002;4.688;2022-09-09T11:31:50;4.25;;;2.78;;
47545;SDS011;50104;52.002;4.688;2022-09-09T11:43:02;5.75;;;2.90;;
47545;SDS011;50104;52.002;4.688;2022-09-09T11:53:59;5.82;;;3.25;;
47545;SDS011;50104;52.002;4.688;2022-09-09T11:59:06;6.32;;;2.92;;
47545;SDS011;50104;52.002;4.688;2022-09-09T12:09:33;6.28;;;3.25;;
47545;SDS011;50104;52.002;4.688;2022-09-09T12:14:58;7.53;;;3.60;;
47545;SDS011;50104;52.002;4.688;2022-09-09T12:20:26;6.30;;;3.17;;
47545;SDS011;50104;52.002;4.688;2022-09-09T12:36:23;8.23;;;4.07;;
47545;SDS011;50104;52.002;4.688;2022-09-09T12:41:29;3.95;;;3.33;;
47545;SDS011;50104;52.002;4.688;2022-09-09T12:46:36;6.95;;;3.40;;
47545;SDS011;50104;52.002;4.688;2022-09-09T12:51:45;6.93;;;2.72;;
47545;SDS011;50104;52.002;4.688;2022-09-09T12:56:46;5.70;;;2.80;;
47545;SDS011;50104;52.002;4.688;2022-09-09T13:01:55;3.88;;;2.08;;
47545;SDS011;50104;52.002;4.688;2022-09-09T13:07:06;3.15;;;2.25;;
47545;SDS011;50104;52.002;4.688;2022-09-09T13:12:14;4.85;;;3.05;;
47545;SDS011;50104;52.002;4.688;2022-09-09T13:17:25;6.97;;;2.08;;
47545;SDS011;50104;52.002;4.688;2022-09-09T13:22:31;3.97;;;2.33;;
47545;SDS011;50104;52.002;4.688;2022-09-09T13:27:40;2.95;;;2.08;;
47545;SDS011;50104;52.002;4.688;2022-09-09T13:33:04;3.25;;;1.85;;
47545;SDS011;50104;52.002;4.688;2022-09-09T13:38:14;4.07;;;2.25;;
47545;SDS011;50104;52.002;4.688;2022-09-09T13:43:18;2.92;;;2.40;;
47545;SDS011;50104;52.002;4.688;2022-09-09T13:48:23;5.00;;;2.17;;
47545;SDS011;50104;52.002;4.688;2022-09-09T13:53:24;3.25;;;2.00;;
47545;SDS011;50104;52.002;4.688;2022-09-09T13:58:26;4.05;;;1.80;;
47545;SDS011;50104;52.002;4.688;2022-09-09T14:03:27;4.90;;;1.95;;
47545;SDS011;50104;52.002;4.688;2022-09-09T14:08:27;1.63;;;1.17;;
47545;SDS011;50104;52.002;4.688;2022-09-09T14:13:36;1.13;;;0.77;;
47545;SDS011;50104;52.002;4.688;2022-09-09T14:18:37;3.58;;;1.25;;
47545;SDS011;50104;52.002;4.688;2022-09-09T14:23:39;2.17;;;1.10;;
47545;SDS011;50104;52.002;4.688;2022-09-09T14:28:40;2.03;;;1.23;;
47545;SDS011;50104;52.002;4.688;2022-09-09T14:33:41;2.85;;;1.35;;
47545;SDS011;50104;52.002;4.688;2022-09-09T14:38:42;5.13;;;1.70;;
47545;SDS011;50104;52.002;4.688;2022-09-09T14:43:43;2.75;;;1.75;;
47545;SDS011;50104;52.002;4.688;2022-09-09T14:48:45;2.60;;;1.83;;
47545;SDS011;50104;52.002;4.688;2022-09-09T14:53:50;4.28;;;1.55;;
47545;SDS011;50104;52.002;4.688;2022-09-09T14:58:53;2.97;;;1.67;;
47545;SDS011;50104;52.002;4.688;2022-09-09T15:03:57;4.38;;;1.48;;
47545;SDS011;50104;52.002;4.688;2022-09-09T15:09:00;3.08;;;1.42;;
47545;SDS011;50104;52.002;4.688;2022-09-09T15:14:01;2.42;;;1.40;;
47545;SDS011;50104;52.002;4.688;2022-09-09T15:19:02;5.20;;;1.60;;
47545;SDS011;50104;52.002;4.688;2022-09-09T15:24:04;3.13;;;1.20;;
47545;SDS011;50104;52.002;4.688;2022-09-09T15:29:07;1.33;;;1.10;;
47545;SDS011;50104;52.002;4.688;2022-09-09T15:34:08;4.45;;;1.30;;
47545;SDS011;50104;52.002;4.688;2022-09-09T15:39:10;1.98;;;0.95;;
47545;SDS011;50104;52.002;4.688;2022-09-09T15:44:15;1.93;;;1.20;;
47545;SDS011;50104;52.002;4.688;2022-09-09T15:49:18;4.57;;;1.70;;
47545;SDS011;50104;52.002;4.688;2022-09-09T15:54:25;4.53;;;1.73;;
47545;SDS011;50104;52.002;4.688;2022-09-09T15:59:27;7.47;;;2.45;;
47545;SDS011;50104;52.002;4.688;2022-09-09T16:04:29;3.50;;;2.10;;
47545;SDS011;50104;52.002;4.688;2022-09-09T16:09:31;4.72;;;2.05;;
47545;SDS011;50104;52.002;4.688;2022-09-09T16:14:32;4.75;;;2.40;;
47545;SDS011;50104;52.002;4.688;2022-09-09T16:19:35;4.70;;;2.80;;
47545;SDS011;50104;52.002;4.688;2022-09-09T16:24:36;7.43;;;3.53;;
47545;SDS011;50104;52.002;4.688;2022-09-09T16:29:37;5.78;;;2.65;;
47545;SDS011;50104;52.002;4.688;2022-09-09T16:34:38;3.75;;;2.90;;
47545;SDS011;50104;52.002;4.688;2022-09-09T16:39:38;8.48;;;3.53;;
47545;SDS011;50104;52.002;4.688;2022-09-09T16:44:39;6.28;;;3.42;;
47545;SDS011;50104;52.002;4.688;2022-09-09T16:49:41;3.65;;;2.65;;
47545;SDS011;50104;52.002;4.688;2022-09-09T16:54:42;5.82;;;2.60;;
47545;SDS011;50104;52.002;4.688;2022-09-09T16:59:42;5.25;;;3.08;;
47545;SDS011;50104;52.002;4.688;2022-09-09T17:04:44;4.18;;;2.03;;
47545;SDS011;50104;52.002;4.688;2022-09-09T17:09:44;2.88;;;1.90;;
47545;SDS011;50104;52.002;4.688;2022-09-09T17:14:45;3.75;;;2.58;;
47545;SDS011;50104;52.002;4.688;2022-09-09T17:19:46;3.55;;;2.55;;
47545;SDS011;50104;52.002;4.688;2022-09-09T17:24:47;6.65;;;2.67;;
47545;SDS011;50104;52.002;4.688;2022-09-09T17:29:48;4.80;;;3.40;;
47545;SDS011;50104;52.002;4.688;2022-09-09T17:34:49;6.95;;;2.90;;
47545;SDS011;50104;52.002;4.688;2022-09-09T17:39:50;4.28;;;3.10;;
47545;SDS011;50104;52.002;4.688;2022-09-09T17:44:51;4.07;;;3.17;;
47545;SDS011;50104;52.002;4.688;2022-09-09T17:49:52;8.27;;;3.50;;
47545;SDS011;50104;52.002;4.688;2022-09-09T17:54:52;5.60;;;3.20;;
47545;SDS011;50104;52.002;4.688;2022-09-09T17:59:56;4.43;;;2.80;;
47545;SDS011;50104;52.002;4.688;2022-09-09T18:04:57;8.10;;;2.88;;
47545;SDS011;50104;52.002;4.688;2022-09-09T18:09:59;4.45;;;2.92;;
47545;SDS011;50104;52.002;4.688;2022-09-09T18:15:00;2.92;;;2.38;;
47545;SDS011;50104;52.002;4.688;2022-09-09T18:20:01;3.15;;;2.42;;
47545;SDS011;50104;52.002;4.688;2022-09-09T18:25:02;3.97;;;2.25;;
47545;SDS011;50104;52.002;4.688;2022-09-09T18:30:04;5.13;;;1.90;;
47545;SDS011;50104;52.002;4.688;2022-09-09T18:35:06;5.95;;;1.60;;
47545;SDS011;50104;52.002;4.688;2022-09-09T18:40:07;2.15;;;1.38;;
47545;SDS011;50104;52.002;4.688;2022-09-09T18:45:08;4.10;;;1.50;;
47545;SDS011;50104;52.002;4.688;2022-09-09T18:50:09;5.43;;;1.92;;
47545;SDS011;50104;52.002;4.688;2022-09-09T18:55:10;4.20;;;2.47;;
47545;SDS011;50104;52.002;4.688;2022-09-09T19:00:11;3.45;;;1.77;;
47545;SDS011;50104;52.002;4.688;2022-09-09T19:11:23;4.50;;;1.98;;
47545;SDS011;50104;52.002;4.688;2022-09-09T19:16:29;4.32;;;1.80;;
47545;SDS011;50104;52.002;4.688;2022-09-09T19:21:34;5.72;;;1.83;;
47545;SDS011;50104;52.002;4.688;2022-09-09T19:26:38;3.17;;;2.03;;
47545;SDS011;50104;52.002;4.688;2022-09-09T19:31:43;5.40;;;2.40;;
47545;SDS011;50104;52.002;4.688;2022-09-09T19:36:44;5.35;;;2.50;;
47545;SDS011;50104;52.002;4.688;2022-09-09T19:41:46;4.50;;;2.55;;
47545;SDS011;50104;52.002;4.688;2022-09-09T19:46:48;6.82;;;2.83;;
47545;SDS011;50104;52.002;4.688;2022-09-09T19:51:49;7.18;;;2.25;;
47545;SDS011;50104;52.002;4.688;2022-09-09T19:56:50;5.43;;;3.08;;
47545;SDS011;50104;52.002;4.688;2022-09-09T20:01:50;3.20;;;2.38;;
47545;SDS011;50104;52.002;4.688;2022-09-09T20:06:51;5.32;;;2.33;;
47545;SDS011;50104;52.002;4.688;2022-09-09T20:11:53;2.92;;;2.58;;
47545;SDS011;50104;52.002;4.688;2022-09-09T20:16:53;3.35;;;2.25;;
47545;SDS011;50104;52.002;4.688;2022-09-09T20:21:55;4.85;;;2.15;;
47545;SDS011;50104;52.002;4.688;2022-09-09T20:26:57;3.63;;;2.60;;
47545;SDS011;50104;52.002;4.688;2022-09-09T20:31:58;4.57;;;3.15;;
47545;SDS011;50104;52.002;4.688;2022-09-09T20:37:00;7.18;;;3.50;;
47545;SDS011;50104;52.002;4.688;2022-09-09T20:42:02;4.88;;;2.65;;
47545;SDS011;50104;52.002;4.688;2022-09-09T20:47:03;5.05;;;2.65;;
47545;SDS011;50104;52.002;4.688;2022-09-09T20:52:06;5.53;;;3.83;;
47545;SDS011;50104;52.002;4.688;2022-09-09T20:57:06;4.03;;;2.60;;
47545;SDS011;50104;52.002;4.688;2022-09-09T21:02:08;7.10;;;2.60;;
47545;SDS011;50104;52.002;4.688;2022-09-09T21:07:10;3.78;;;2.20;;
47545;SDS011;50104;52.002;4.688;2022-09-09T21:12:11;3.55;;;1.95;;
47545;SDS011;50104;52.002;4.688;2022-09-09T21:17:11;3.40;;;2.00;;
47545;SDS011;50104;52.002;4.688;2022-09-09T21:22:12;4.90;;;3.15;;
47545;SDS011;50104;52.002;4.688;2022-09-09T21:27:13;4.10;;;2.13;;
47545;SDS011;50104;52.002;4.688;2022-09-09T21:32:14;3.42;;;2.10;;
47545;SDS011;50104;52.002;4.688;2022-09-09T21:37:15;4.35;;;2.15;;
47545;SDS011;50104;52.002;4.688;2022-09-09T21:42:16;4.95;;;2.35;;
47545;SDS011;50104;52.002;4.688;2022-09-09T21:47:17;3.72;;;2.90;;
47545;SDS011;50104;52.002;4.688;2022-09-09T21:52:18;4.70;;;2.95;;
47545;SDS011;50104;52.002;4.688;2022-09-09T21:57:19;6.53;;;3.78;;
47545;SDS011;50104;52.002;4.688;2022-09-09T22:02:20;6.50;;;3.95;;
47545;SDS011;50104;52.002;4.688;2022-09-09T22:07:31;10.80;;;4.05;;
47545;SDS011;50104;52.002;4.688;2022-09-09T22:12:52;6.22;;;4.68;;
47545;SDS011;50104;52.002;4.688;2022-09-09T22:18:01;7.75;;;4.43;;
47545;SDS011;50104;52.002;4.688;2022-09-09T22:23:03;7.47;;;4.20;;
47545;SDS011;50104;52.002;4.688;2022-09-09T22:28:19;7.70;;;5.03;;
47545;SDS011;50104;52.002;4.688;2022-09-09T22:33:31;8.32;;;5.80;;
47545;SDS011;50104;52.002;4.688;2022-09-09T22:38:41;10.95;;;7.68;;
47545;SDS011;50104;52.002;4.688;2022-09-09T22:43:46;12.48;;;8.20;;
47545;SDS011;50104;52.002;4.688;2022-09-09T22:48:47;14.90;;;8.68;;
47545;SDS011;50104;52.002;4.688;2022-09-09T22:53:48;13.20;;;8.00;;
47545;SDS011;50104;52.002;4.688;2022-09-09T22:58:51;13.98;;;8.35;;
47545;SDS011;50104;52.002;4.688;2022-09-09T23:03:57;11.98;;;7.00;;
47545;SDS011;50104;52.002;4.688;2022-09-09T23:08:59;11.50;;;7.90;;
47545;SDS011;50104;52.002;4.688;2022-09-09T23:14:02;17.45;;;7.93;;
47545;SDS011;50104;52.002;4.688;2022-09-09T23:19:06;9.55;;;7.45;;
47545;SDS011;50104;52.002;4.688;2022-09-09T23:24:14;13.20;;;6.53;;
47545;SDS011;50104;52.002;4.688;2022-09-09T23:29:16;11.02;;;7.10;;
47545;SDS011;50104;52.002;4.688;2022-09-09T23:34:18;9.85;;;6.40;;
47545;SDS011;50104;52.002;4.688;2022-09-09T23:39:18;13.52;;;5.05;;
47545;SDS011;50104;52.002;4.688;2022-09-09T23:44:19;7.40;;;4.88;;
47545;SDS011;50104;52.002;4.688;2022-09-09T23:49:20;8.50;;;4.68;;
47545;SDS011;50104;52.002;4.688;2022-09-09T23:54:21;5.45;;;4.25;;
47545;SDS011;50104;52.002;4.688;2022-09-09T23:59:24;6.50;;;3.58;;
